createdAt,value
2019-02-25T00:00:12.153Z,68.88
2019-02-25T00:01:12.070Z,68.50
2019-02-25T00:02:11.981Z,68.12
2019-02-25T00:03:11.891Z,68.21
2019-02-25T00:04:11.804Z,68.40
2019-02-25T00:05:11.713Z,68.12
2019-02-25T00:06:11.625Z,67.83
2019-02-25T00:07:11.541Z,67.36
2019-02-25T00:08:11.449Z,66.80
2019-02-25T00:09:11.364Z,66.51
2019-02-25T00:10:11.273Z,66.32
2019-02-25T00:11:11.201Z,66.51
2019-02-25T00:12:11.098Z,66.60
2019-02-25T00:13:11.009Z,66.03
2019-02-25T00:14:10.918Z,65.84
2019-02-25T00:15:10.837Z,66.03
2019-02-25T00:16:10.745Z,66.32
2019-02-25T00:17:10.661Z,66.32
2019-02-25T00:18:10.570Z,66.28
2019-02-25T00:19:10.479Z,66.09
2019-02-25T00:20:10.392Z,66.38
2019-02-25T00:21:10.311Z,66.76
2019-02-25T00:22:10.217Z,67.14
2019-02-25T00:23:10.127Z,68.08
2019-02-25T00:24:10.039Z,68.27
2019-02-25T00:25:09.946Z,68.65
2019-02-25T00:26:09.854Z,68.84
2019-02-25T00:27:09.772Z,69.03
2019-02-25T00:28:09.678Z,69.03
2019-02-25T00:29:09.590Z,68.37
2019-02-25T00:30:09.510Z,68.84
2019-02-25T00:31:09.422Z,68.56
2019-02-25T00:32:09.336Z,69.03
2019-02-25T00:33:09.241Z,68.65
2019-02-25T00:34:09.154Z,68.94
2019-02-25T00:35:09.073Z,69.13
2019-02-25T00:36:08.983Z,68.94
2019-02-25T00:37:08.891Z,68.75
2019-02-25T00:38:08.796Z,68.84
2019-02-25T00:39:08.712Z,68.31
2019-02-25T00:40:08.624Z,68.12
2019-02-25T00:41:08.535Z,68.40
2019-02-25T00:42:08.449Z,68.40
2019-02-25T00:43:08.358Z,68.02
2019-02-25T00:44:08.276Z,67.83
2019-02-25T00:45:08.196Z,67.27
2019-02-25T00:46:08.092Z,67.61
2019-02-25T00:47:08.004Z,68.27
2019-02-25T00:48:07.910Z,68.56
2019-02-25T00:49:07.826Z,68.27
2019-02-25T00:50:07.740Z,67.99
2019-02-25T00:51:07.654Z,68.08
2019-02-25T00:52:07.562Z,68.27
2019-02-25T00:53:07.476Z,68.27
2019-02-25T00:54:07.383Z,68.08
2019-02-25T00:55:07.300Z,67.93
2019-02-25T00:56:07.206Z,67.93
2019-02-25T00:57:08.974Z,67.93
2019-02-25T00:58:07.030Z,68.21
2019-02-25T00:59:06.943Z,68.02
2019-02-25T01:00:06.857Z,67.74
2019-02-25T01:01:06.768Z,68.12
2019-02-25T01:02:06.678Z,67.90
2019-02-25T01:03:06.588Z,68.08
2019-02-25T01:04:06.502Z,69.13
2019-02-25T01:05:06.410Z,69.32
2019-02-25T01:06:06.326Z,69.79
2019-02-25T01:07:06.237Z,70.17
2019-02-25T01:08:07.721Z,70.17
2019-02-25T01:09:06.054Z,69.98
2019-02-25T01:10:05.967Z,69.89
2019-02-25T01:11:05.882Z,70.83
2019-02-25T01:12:05.785Z,70.74
2019-02-25T01:13:05.706Z,70.55
2019-02-25T01:14:05.643Z,70.74
2019-02-25T01:15:06.222Z,70.93
2019-02-25T01:16:05.438Z,70.55
2019-02-25T01:17:05.348Z,70.45
2019-02-25T01:18:05.260Z,70.55
2019-02-25T01:19:05.169Z,70.07
2019-02-25T01:20:05.083Z,69.98
2019-02-25T01:21:04.995Z,70.26
2019-02-25T01:22:04.909Z,69.41
2019-02-25T01:23:04.818Z,69.70
2019-02-25T01:24:04.721Z,69.51
2019-02-25T01:25:04.640Z,69.51
2019-02-25T01:26:04.550Z,69.22
2019-02-25T01:27:04.463Z,69.79
2019-02-25T01:28:04.389Z,70.64
2019-02-25T01:29:04.292Z,71.12
2019-02-25T01:30:04.198Z,71.50
2019-02-25T01:31:04.103Z,71.50
2019-02-25T01:32:04.021Z,71.59
2019-02-25T01:33:03.940Z,71.31
2019-02-25T01:34:03.844Z,71.69
2019-02-25T01:35:03.755Z,71.31
2019-02-25T01:36:03.664Z,71.31
2019-02-25T01:37:03.568Z,71.50
2019-02-25T01:38:03.489Z,71.59
2019-02-25T01:39:03.393Z,71.59
2019-02-25T01:40:03.308Z,71.40
2019-02-25T01:41:03.221Z,70.74
2019-02-25T01:42:03.133Z,71.78
2019-02-25T01:43:03.043Z,71.31
2019-02-25T01:44:02.954Z,71.50
2019-02-25T01:45:02.862Z,71.59
2019-02-25T01:46:02.777Z,71.02
2019-02-25T01:47:02.689Z,71.40
2019-02-25T01:48:02.597Z,71.69
2019-02-25T01:49:02.509Z,71.40
2019-02-25T01:50:02.419Z,71.59
2019-02-25T01:51:02.334Z,71.40
2019-02-25T01:52:02.240Z,71.40
2019-02-25T01:53:02.157Z,71.50
2019-02-25T01:54:02.060Z,71.59
2019-02-25T01:55:01.972Z,71.50
2019-02-25T01:56:01.886Z,71.50
2019-02-25T01:57:01.795Z,71.59
2019-02-25T01:58:01.703Z,71.59
2019-02-25T01:59:01.620Z,71.74
2019-02-25T02:00:01.530Z,72.50
2019-02-25T02:01:01.438Z,72.78
2019-02-25T02:02:01.352Z,73.07
2019-02-25T02:03:01.264Z,72.97
2019-02-25T02:04:01.174Z,73.45
2019-02-25T02:05:01.080Z,73.07
2019-02-25T02:06:00.998Z,72.78
2019-02-25T02:07:00.911Z,72.60
2019-02-25T02:08:00.817Z,72.50
2019-02-25T02:09:00.726Z,72.69
2019-02-25T02:10:00.640Z,72.92
2019-02-25T02:11:00.550Z,72.25
2019-02-25T02:12:00.462Z,72.06
2019-02-25T02:13:00.371Z,72.16
2019-02-25T02:14:00.291Z,71.88
2019-02-25T02:15:00.325Z,71.97
2019-02-25T02:16:00.106Z,71.97
2019-02-25T02:17:00.018Z,71.97
2019-02-25T02:17:59.928Z,72.03
2019-02-25T02:18:59.839Z,72.12
2019-02-25T02:19:59.750Z,72.60
2019-02-25T02:20:59.661Z,72.41
2019-02-25T02:21:59.575Z,72.41
2019-02-25T02:22:59.484Z,72.88
2019-02-25T02:23:59.398Z,73.07
2019-02-25T02:24:59.301Z,72.78
2019-02-25T02:25:59.224Z,72.69
2019-02-25T02:26:59.127Z,72.41
2019-02-25T02:27:59.039Z,71.84
2019-02-25T02:28:58.953Z,72.16
2019-02-25T02:29:58.862Z,71.55
2019-02-25T02:30:58.770Z,71.27
2019-02-25T02:31:58.685Z,71.40
2019-02-25T02:32:58.591Z,71.59
2019-02-25T02:33:58.505Z,71.31
2019-02-25T02:34:58.416Z,71.36
2019-02-25T02:35:58.322Z,71.50
2019-02-25T02:36:58.243Z,71.31
2019-02-25T02:37:58.150Z,71.50
2019-02-25T02:38:58.059Z,71.12
2019-02-25T02:39:57.969Z,71.69
2019-02-25T02:40:57.881Z,71.31
2019-02-25T02:41:57.792Z,71.21
2019-02-25T02:42:57.707Z,71.50
2019-02-25T02:43:57.611Z,71.69
2019-02-25T02:44:57.539Z,71.50
2019-02-25T02:45:57.436Z,70.93
2019-02-25T02:46:57.348Z,71.21
2019-02-25T02:47:57.260Z,70.93
2019-02-25T02:48:57.170Z,71.31
2019-02-25T02:49:57.075Z,71.50
2019-02-25T02:50:56.993Z,71.69
2019-02-25T02:51:56.908Z,71.65
2019-02-25T02:52:56.818Z,71.36
2019-02-25T02:53:56.724Z,71.46
2019-02-25T02:54:56.656Z,72.25
2019-02-25T02:55:56.547Z,71.74
2019-02-25T02:56:56.458Z,72.22
2019-02-25T02:57:56.369Z,72.22
2019-02-25T02:58:56.280Z,71.93
2019-02-25T02:59:56.188Z,72.31
2019-02-25T03:00:56.156Z,73.16
2019-02-25T03:01:56.012Z,73.16
2019-02-25T03:02:55.926Z,73.92
2019-02-25T03:03:55.835Z,73.92
2019-02-25T03:04:55.752Z,73.92
2019-02-25T03:05:55.666Z,73.73
2019-02-25T03:06:55.568Z,73.83
2019-02-25T03:07:55.480Z,73.54
2019-02-25T03:08:55.388Z,73.92
2019-02-25T03:09:55.301Z,73.07
2019-02-25T03:10:55.211Z,73.16
2019-02-25T03:11:55.121Z,72.97
2019-02-25T03:12:55.033Z,72.88
2019-02-25T03:13:54.944Z,73.26
2019-02-25T03:14:54.855Z,73.35
2019-02-25T03:15:54.766Z,73.16
2019-02-25T03:16:54.678Z,72.78
2019-02-25T03:17:54.581Z,72.78
2019-02-25T03:18:54.500Z,72.78
2019-02-25T03:19:54.410Z,73.35
2019-02-25T03:20:54.321Z,73.92
2019-02-25T03:21:54.229Z,73.73
2019-02-25T03:22:54.141Z,73.26
2019-02-25T03:23:54.054Z,73.26
2019-02-25T03:24:53.965Z,72.97
2019-02-25T03:25:53.874Z,73.26
2019-02-25T03:26:53.799Z,73.73
2019-02-25T03:27:53.692Z,73.16
2019-02-25T03:28:53.608Z,72.69
2019-02-25T03:29:53.516Z,72.88
2019-02-25T03:30:53.433Z,73.07
2019-02-25T03:33:26.460Z,73.16
2019-02-25T03:34:26.264Z,72.88
2019-02-25T03:36:31.588Z,72.88
2019-02-25T03:37:31.491Z,72.78
2019-02-25T03:38:31.403Z,72.78
2019-02-25T03:39:31.314Z,73.20
2019-02-25T03:40:31.226Z,72.41
2019-02-25T03:41:31.140Z,72.12
2019-02-25T03:42:31.045Z,72.12
2019-02-25T03:43:30.958Z,72.16
2019-02-25T03:44:30.866Z,72.06
2019-02-25T03:45:30.789Z,72.03
2019-02-25T03:46:30.690Z,72.22
2019-02-25T03:47:30.600Z,72.16
2019-02-25T03:48:30.514Z,72.03
2019-02-25T03:49:30.422Z,72.25
2019-02-25T03:50:30.334Z,71.93
2019-02-25T03:51:30.243Z,72.63
2019-02-25T03:52:30.153Z,72.60
2019-02-25T03:53:30.065Z,72.60
2019-02-25T03:54:29.978Z,72.60
2019-02-25T03:55:29.898Z,72.31
2019-02-25T03:56:29.793Z,73.07
2019-02-25T03:57:29.712Z,72.97
2019-02-25T03:58:29.623Z,73.16
2019-02-25T03:59:29.535Z,72.97
2019-02-25T04:00:29.445Z,72.88
2019-02-25T04:01:29.351Z,73.26
2019-02-25T04:02:29.264Z,73.73
2019-02-25T04:03:29.175Z,73.92
2019-02-25T04:04:29.085Z,73.07
2019-02-25T04:05:28.998Z,73.16
2019-02-25T04:06:28.908Z,73.26
2019-02-25T04:07:28.823Z,73.35
2019-02-25T04:08:28.724Z,73.83
2019-02-25T04:09:28.651Z,74.02
2019-02-25T04:10:28.550Z,73.45
2019-02-25T04:11:28.459Z,74.11
2019-02-25T04:12:28.374Z,73.54
2019-02-25T04:13:28.279Z,73.45
2019-02-25T04:14:28.197Z,73.35
2019-02-25T04:15:28.107Z,73.92
2019-02-25T04:16:28.018Z,73.26
2019-02-25T04:17:27.928Z,73.64
2019-02-25T04:18:27.836Z,73.83
2019-02-25T04:19:27.746Z,73.83
2019-02-25T04:20:27.662Z,73.83
2019-02-25T04:21:27.575Z,73.92
2019-02-25T04:22:27.483Z,73.83
2019-02-25T04:23:27.393Z,74.02
2019-02-25T04:24:27.312Z,73.92
2019-02-25T04:25:27.213Z,73.73
2019-02-25T04:26:27.134Z,73.92
2019-02-25T04:27:27.040Z,73.64
2019-02-25T04:28:26.947Z,73.83
2019-02-25T04:29:26.856Z,73.35
2019-02-25T04:30:26.779Z,73.16
2019-02-25T04:31:26.687Z,73.35
2019-02-25T04:32:26.591Z,72.97
2019-02-25T04:33:26.503Z,73.07
2019-02-25T04:34:26.413Z,72.88
2019-02-25T04:35:26.323Z,72.78
2019-02-25T04:36:26.230Z,72.78
2019-02-25T04:37:26.152Z,73.16
2019-02-25T04:38:26.057Z,73.92
2019-02-25T04:39:25.967Z,73.54
2019-02-25T04:40:25.877Z,74.02
2019-02-25T04:41:25.808Z,73.83
2019-02-25T04:42:25.695Z,74.02
2019-02-25T04:43:25.609Z,73.83
2019-02-25T04:44:25.518Z,73.73
2019-02-25T04:45:25.432Z,74.02
2019-02-25T04:46:25.345Z,73.26
2019-02-25T04:47:25.253Z,73.73
2019-02-25T04:48:25.160Z,73.73
2019-02-25T04:49:25.075Z,73.83
2019-02-25T04:50:24.986Z,73.83
2019-02-25T04:51:24.895Z,74.02
2019-02-25T04:52:24.808Z,74.58
2019-02-25T04:53:24.717Z,74.58
2019-02-25T04:54:24.629Z,74.40
2019-02-25T04:55:24.541Z,74.40
2019-02-25T04:56:25.336Z,74.21
2019-02-25T04:57:24.357Z,74.58
2019-02-25T04:58:24.269Z,74.30
2019-02-25T04:59:24.175Z,73.64
2019-02-25T05:00:24.091Z,73.83
2019-02-25T05:01:24.004Z,74.11
2019-02-25T05:02:23.911Z,73.92
2019-02-25T05:03:23.824Z,74.11
2019-02-25T05:04:23.746Z,73.83
2019-02-25T05:05:23.649Z,73.73
2019-02-25T05:06:23.556Z,73.26
2019-02-25T05:07:23.464Z,73.16
2019-02-25T05:08:23.376Z,73.64
2019-02-25T05:09:23.286Z,73.64
2019-02-25T05:10:23.197Z,73.92
2019-02-25T05:11:23.109Z,73.26
2019-02-25T05:12:23.017Z,73.35
2019-02-25T05:13:22.928Z,74.02
2019-02-25T05:14:22.839Z,73.54
2019-02-25T05:15:22.761Z,73.92
2019-02-25T05:16:22.659Z,74.30
2019-02-25T05:17:22.565Z,74.30
2019-02-25T05:18:22.485Z,74.68
2019-02-25T05:19:22.394Z,74.93
2019-02-25T05:20:22.305Z,75.34
2019-02-25T05:21:22.209Z,75.59
2019-02-25T05:22:22.152Z,75.53
2019-02-25T05:23:22.030Z,74.83
2019-02-25T05:24:21.943Z,74.93
2019-02-25T05:25:21.852Z,74.74
2019-02-25T05:26:21.766Z,74.87
2019-02-25T05:27:21.690Z,74.49
2019-02-25T05:28:21.582Z,74.21
2019-02-25T05:29:21.496Z,73.83
2019-02-25T05:30:21.406Z,73.73
2019-02-25T05:31:21.317Z,73.64
2019-02-25T05:32:21.225Z,73.92
2019-02-25T05:33:21.168Z,73.83
2019-02-25T05:34:21.048Z,73.35
2019-02-25T05:35:20.962Z,73.73
2019-02-25T05:36:20.880Z,73.07
2019-02-25T05:37:20.795Z,73.64
2019-02-25T05:38:20.692Z,73.92
2019-02-25T05:39:20.601Z,73.07
2019-02-25T05:40:20.513Z,73.83
2019-02-25T05:41:20.421Z,73.92
2019-02-25T05:42:20.351Z,73.92
2019-02-25T05:43:20.242Z,73.54
2019-02-25T05:44:20.149Z,73.45
2019-02-25T05:45:20.075Z,73.64
2019-02-25T05:46:19.970Z,73.64
2019-02-25T05:47:19.884Z,73.35
2019-02-25T05:48:19.791Z,73.35
2019-02-25T05:49:19.702Z,73.26
2019-02-25T05:50:19.620Z,73.16
2019-02-25T05:51:19.532Z,73.35
2019-02-25T05:52:19.431Z,72.69
2019-02-25T05:53:19.348Z,72.97
2019-02-25T05:54:19.255Z,72.22
2019-02-25T05:55:19.170Z,72.60
2019-02-25T05:56:19.125Z,72.22
2019-02-25T05:57:18.991Z,72.88
2019-02-25T05:58:18.894Z,72.97
2019-02-25T05:59:18.811Z,72.31
2019-02-25T06:00:18.721Z,72.31
2019-02-25T06:01:18.670Z,72.50
2019-02-25T06:02:18.539Z,72.12
2019-02-25T06:03:18.456Z,72.12
2019-02-25T06:04:18.361Z,71.84
2019-02-25T06:05:18.269Z,71.55
2019-02-25T06:06:18.184Z,71.65
2019-02-25T06:07:18.094Z,71.17
2019-02-25T06:08:17.999Z,71.17
2019-02-25T06:09:17.931Z,71.46
2019-02-25T06:10:17.824Z,72.12
2019-02-25T06:11:17.735Z,71.93
2019-02-25T06:12:17.646Z,71.65
2019-02-25T06:13:17.611Z,71.93
2019-02-25T06:14:17.468Z,72.31
2019-02-25T06:15:17.387Z,72.69
2019-02-25T06:16:17.296Z,72.41
2019-02-25T06:17:17.211Z,72.41
2019-02-25T06:18:17.106Z,72.60
2019-02-25T06:19:17.027Z,72.22
2019-02-25T06:20:16.927Z,71.93
2019-02-25T06:21:16.837Z,72.12
2019-02-25T06:22:16.753Z,72.50
2019-02-25T06:23:16.659Z,72.31
2019-02-25T06:24:16.577Z,72.22
2019-02-25T06:25:16.486Z,72.41
2019-02-25T06:26:16.393Z,72.22
2019-02-25T06:27:16.301Z,72.31
2019-02-25T06:28:16.210Z,72.50
2019-02-25T06:29:16.137Z,72.69
2019-02-25T06:30:16.051Z,72.60
2019-02-25T06:31:15.959Z,72.50
2019-02-25T06:32:15.858Z,72.03
2019-02-25T06:33:15.781Z,72.03
2019-02-25T06:34:15.679Z,72.12
2019-02-25T06:35:15.589Z,71.93
2019-02-25T06:36:15.511Z,71.74
2019-02-25T06:37:15.411Z,71.74
2019-02-25T06:38:15.369Z,72.22
2019-02-25T06:39:15.235Z,72.12
2019-02-25T06:40:15.745Z,71.65
2019-02-25T06:41:15.054Z,71.17
2019-02-25T06:42:14.969Z,71.36
2019-02-25T06:43:14.877Z,71.74
2019-02-25T06:44:14.785Z,72.03
2019-02-25T06:45:14.695Z,72.60
2019-02-25T06:46:14.609Z,73.07
2019-02-25T06:47:14.518Z,72.97
2019-02-25T06:48:14.429Z,72.69
2019-02-25T06:49:14.382Z,73.16
2019-02-25T06:50:14.269Z,72.88
2019-02-25T06:51:14.159Z,72.88
2019-02-25T06:52:14.071Z,72.69
2019-02-25T06:53:13.982Z,72.69
2019-02-25T06:54:13.909Z,72.88
2019-02-25T06:55:13.805Z,72.88
2019-02-25T06:56:13.715Z,72.78
2019-02-25T06:57:13.629Z,72.50
2019-02-25T06:58:13.535Z,72.03
2019-02-25T06:59:13.449Z,72.12
2019-02-25T07:00:13.372Z,72.03
2019-02-25T07:01:13.271Z,72.03
2019-02-25T07:02:13.181Z,72.22
2019-02-25T07:03:13.092Z,72.31
2019-02-25T07:04:13.001Z,72.03
2019-02-25T07:05:12.912Z,71.84
2019-02-25T07:06:12.822Z,71.65
2019-02-25T07:07:12.736Z,71.27
2019-02-25T07:08:12.676Z,71.50
2019-02-25T07:09:12.557Z,71.59
2019-02-25T07:10:12.470Z,71.40
2019-02-25T07:11:12.379Z,71.59
2019-02-25T07:12:12.286Z,71.21
2019-02-25T07:13:12.202Z,70.74
2019-02-25T07:14:12.117Z,71.02
2019-02-25T07:15:12.025Z,70.70
2019-02-25T07:16:11.934Z,70.42
2019-02-25T07:17:11.857Z,70.45
2019-02-25T07:18:11.755Z,69.70
2019-02-25T07:19:11.670Z,70.07
2019-02-25T07:20:11.620Z,70.07
2019-02-25T07:21:11.488Z,69.70
2019-02-25T07:22:11.402Z,69.60
2019-02-25T07:23:11.315Z,69.47
2019-02-25T07:24:11.224Z,69.19
2019-02-25T07:25:11.137Z,70.04
2019-02-25T07:26:11.046Z,70.23
2019-02-25T07:27:10.953Z,69.95
2019-02-25T07:28:10.870Z,69.95
2019-02-25T07:29:10.782Z,70.51
2019-02-25T07:30:10.691Z,70.32
2019-02-25T07:31:10.601Z,69.85
2019-02-25T07:32:10.508Z,70.14
2019-02-25T07:33:10.420Z,70.23
2019-02-25T07:34:10.335Z,70.32
2019-02-25T07:35:10.263Z,70.42
2019-02-25T07:36:10.158Z,70.23
2019-02-25T07:37:10.066Z,70.32
2019-02-25T07:38:09.973Z,70.98
2019-02-25T07:39:09.889Z,70.89
2019-02-25T07:40:09.801Z,70.79
2019-02-25T07:41:09.710Z,70.89
2019-02-25T07:42:09.621Z,71.08
2019-02-25T07:43:09.534Z,71.69
2019-02-25T07:44:09.444Z,71.21
2019-02-25T07:45:09.354Z,71.69
2019-02-25T07:46:09.269Z,71.78
2019-02-25T07:47:09.181Z,71.97
2019-02-25T07:48:09.139Z,71.31
2019-02-25T07:49:08.997Z,70.45
2019-02-25T07:50:08.912Z,71.02
2019-02-25T07:51:08.828Z,70.26
2019-02-25T07:52:08.735Z,70.07
2019-02-25T07:53:08.645Z,69.89
2019-02-25T07:54:08.561Z,70.26
2019-02-25T07:55:08.471Z,70.55
2019-02-25T07:56:08.388Z,70.36
2019-02-25T07:57:08.293Z,70.74
2019-02-25T07:58:08.223Z,71.40
2019-02-25T07:59:08.118Z,71.50
2019-02-25T08:00:08.028Z,71.69
2019-02-25T08:01:07.940Z,71.69
2019-02-25T08:02:07.850Z,71.88
2019-02-25T08:03:07.763Z,70.83
2019-02-25T08:04:07.670Z,70.45
2019-02-25T08:05:07.587Z,69.70
2019-02-25T08:06:07.496Z,69.89
2019-02-25T08:07:07.410Z,70.07
2019-02-25T08:08:07.321Z,70.45
2019-02-25T08:09:07.229Z,70.55
2019-02-25T08:10:07.145Z,70.64
2019-02-25T08:11:07.050Z,69.89
2019-02-25T08:12:06.966Z,70.26
2019-02-25T08:13:06.874Z,70.83
2019-02-25T08:14:06.792Z,70.45
2019-02-25T08:15:08.885Z,69.70
2019-02-25T08:16:06.620Z,69.32
2019-02-25T08:17:06.526Z,68.94
2019-02-25T08:18:06.444Z,69.41
2019-02-25T08:19:06.347Z,69.22
2019-02-25T08:20:06.267Z,69.51
2019-02-25T08:21:06.175Z,69.60
2019-02-25T08:22:06.090Z,69.89
2019-02-25T08:23:05.999Z,69.35
2019-02-25T08:24:05.908Z,69.45
2019-02-25T08:25:05.822Z,69.45
2019-02-25T08:26:05.729Z,69.82
2019-02-25T08:27:05.647Z,69.54
2019-02-25T08:28:05.567Z,69.64
2019-02-25T08:29:05.469Z,69.35
2019-02-25T08:30:05.436Z,69.54
2019-02-25T08:31:05.294Z,69.45
2019-02-25T08:32:05.208Z,69.35
2019-02-25T08:33:05.118Z,69.35
2019-02-25T08:34:05.033Z,70.01
2019-02-25T08:35:04.935Z,69.82
2019-02-25T08:36:04.847Z,69.82
2019-02-25T08:37:04.765Z,70.01
2019-02-25T08:38:04.679Z,70.20
2019-02-25T08:39:04.594Z,69.73
2019-02-25T08:40:04.502Z,69.26
2019-02-25T08:41:04.416Z,69.35
2019-02-25T08:42:04.333Z,69.35
2019-02-25T08:43:04.238Z,69.54
2019-02-25T08:44:04.152Z,69.17
2019-02-25T08:45:04.070Z,68.69
2019-02-25T08:46:03.977Z,68.50
2019-02-25T08:47:03.882Z,68.40
2019-02-25T08:48:03.798Z,68.50
2019-02-25T08:49:03.729Z,68.31
2019-02-25T08:50:03.622Z,68.79
2019-02-25T08:51:03.556Z,67.83
2019-02-25T08:52:03.472Z,67.46
2019-02-25T08:53:03.362Z,67.46
2019-02-25T08:54:03.276Z,67.27
2019-02-25T08:55:03.187Z,67.74
2019-02-25T08:56:03.099Z,67.93
2019-02-25T08:57:03.011Z,67.83
2019-02-25T08:58:02.922Z,67.83
2019-02-25T08:59:02.841Z,68.02
2019-02-25T09:00:02.744Z,67.96
2019-02-25T09:01:02.663Z,67.55
2019-02-25T09:02:02.574Z,67.21
2019-02-25T09:03:02.486Z,66.35
2019-02-25T09:04:02.398Z,66.35
2019-02-25T09:05:02.312Z,66.16
2019-02-25T09:06:02.222Z,66.45
2019-02-25T09:07:02.138Z,65.88
2019-02-25T09:08:02.048Z,65.69
2019-02-25T09:09:01.962Z,65.78
2019-02-25T09:10:01.885Z,65.59
2019-02-25T09:11:01.789Z,65.97
2019-02-25T09:12:01.705Z,66.07
2019-02-25T09:13:01.613Z,65.69
2019-02-25T09:14:01.526Z,66.07
2019-02-25T09:15:01.438Z,66.64
2019-02-25T09:16:01.353Z,66.45
2019-02-25T09:17:01.264Z,66.16
2019-02-25T09:18:01.172Z,65.97
2019-02-25T09:19:01.093Z,65.97
2019-02-25T09:20:01.002Z,66.35
2019-02-25T09:21:00.919Z,66.93
2019-02-25T09:22:00.828Z,66.45
2019-02-25T09:23:00.749Z,66.83
2019-02-25T09:24:00.655Z,65.69
2019-02-25T09:25:00.567Z,65.50
2019-02-25T09:26:00.482Z,65.03
2019-02-25T09:27:00.389Z,64.46
2019-02-25T09:28:00.307Z,62.94
2019-02-25T09:29:00.216Z,62.59
2019-02-25T09:30:00.138Z,61.93
2019-02-25T09:31:00.052Z,62.21
2019-02-25T09:31:59.960Z,62.59
2019-02-25T09:33:07.051Z,62.50
2019-02-25T09:35:03.682Z,62.78
2019-02-25T09:36:03.577Z,62.31
2019-02-25T09:37:03.490Z,62.40
2019-02-25T09:38:03.411Z,62.50
2019-02-25T09:39:03.331Z,62.50
2019-02-25T09:40:03.232Z,61.93
2019-02-25T09:41:03.139Z,61.17
2019-02-25T09:42:03.055Z,60.98
2019-02-25T09:43:02.962Z,60.03
2019-02-25T09:44:02.889Z,59.84
2019-02-25T09:45:02.797Z,59.75
2019-02-25T09:46:02.711Z,59.75
2019-02-25T09:47:02.623Z,59.84
2019-02-25T09:48:02.540Z,60.13
2019-02-25T09:49:02.454Z,60.89
2019-02-25T09:50:02.372Z,60.79
2019-02-25T09:51:02.282Z,59.75
2019-02-25T09:52:02.194Z,60.13
2019-02-25T09:53:02.113Z,59.75
2019-02-25T09:54:02.034Z,59.75
2019-02-25T09:55:01.943Z,59.84
2019-02-25T09:56:01.852Z,59.75
2019-02-25T09:57:01.763Z,60.53
2019-02-25T09:58:01.673Z,61.30
2019-02-25T09:59:01.591Z,60.73
2019-02-25T10:00:01.542Z,60.82
2019-02-25T10:01:01.419Z,61.11
2019-02-25T10:02:01.338Z,60.35
2019-02-25T10:03:01.250Z,59.97
2019-02-25T10:04:01.160Z,59.88
2019-02-25T10:05:01.077Z,58.83
2019-02-25T10:06:00.987Z,58.64
2019-02-25T10:07:02.503Z,58.45
2019-02-25T10:08:00.813Z,58.07
2019-02-25T10:09:00.727Z,59.02
2019-02-25T10:10:00.647Z,59.11
2019-02-25T10:11:00.555Z,58.83
2019-02-25T10:12:00.474Z,58.92
2019-02-25T10:13:00.388Z,59.49
2019-02-25T10:14:00.300Z,59.49
2019-02-25T10:15:00.317Z,59.68
2019-02-25T10:16:00.128Z,60.16
2019-02-25T10:17:00.052Z,59.49
2019-02-25T10:17:59.969Z,60.25
2019-02-25T10:18:59.873Z,60.25
2019-02-25T10:19:59.789Z,61.14
2019-02-25T10:20:59.704Z,60.76
2019-02-25T10:21:59.622Z,60.10
2019-02-25T10:22:59.534Z,60.19
2019-02-25T10:23:59.453Z,60.10
2019-02-25T10:24:59.363Z,60.10
2019-02-25T10:25:59.282Z,59.71
2019-02-25T10:26:59.192Z,59.33
2019-02-25T10:27:59.106Z,59.71
2019-02-25T10:28:59.025Z,60.19
2019-02-25T10:29:58.939Z,60.00
2019-02-25T10:30:58.852Z,60.47
2019-02-25T10:32:00.120Z,60.19
2019-02-25T10:33:00.678Z,60.00
2019-02-25T10:33:58.598Z,59.71
2019-02-25T10:34:58.513Z,60.00
2019-02-25T10:35:58.426Z,59.81
2019-02-25T10:36:58.342Z,60.00
2019-02-25T10:37:58.262Z,60.38
2019-02-25T10:38:58.176Z,60.22
2019-02-25T10:39:58.093Z,59.74
2019-02-25T10:40:59.416Z,58.98
2019-02-25T10:41:59.492Z,58.98
2019-02-25T10:42:57.840Z,58.70
2019-02-25T10:43:58.488Z,58.13
2019-02-25T10:44:57.672Z,58.32
2019-02-25T10:45:57.589Z,58.51
2019-02-25T10:46:57.507Z,58.89
2019-02-25T10:47:58.741Z,58.13
2019-02-25T10:48:59.091Z,58.61
2019-02-25T10:49:58.649Z,58.89
2019-02-25T10:50:57.175Z,58.51
2019-02-25T10:51:57.092Z,58.25
2019-02-25T10:53:03.378Z,58.25
2019-02-25T10:53:56.925Z,58.25
2019-02-25T10:54:58.276Z,58.16
2019-02-25T10:55:56.764Z,58.06
2019-02-25T10:56:57.887Z,58.16
2019-02-25T10:57:57.606Z,58.16
2019-02-25T10:58:57.706Z,58.35
2019-02-25T10:59:56.444Z,57.81
2019-02-25T11:00:56.370Z,58.57
2019-02-25T11:01:56.276Z,58.57
2019-02-25T11:02:58.147Z,58.57
2019-02-25T11:03:56.119Z,58.09
2019-02-25T11:04:57.658Z,57.81
2019-02-25T11:05:56.348Z,57.90
2019-02-25T11:06:55.889Z,58.18
2019-02-25T11:07:55.802Z,58.00
2019-02-25T11:08:55.722Z,57.52
2019-02-25T11:09:55.638Z,57.07
2019-02-25T11:10:55.560Z,56.60
2019-02-25T11:11:58.033Z,56.41
2019-02-25T11:12:57.192Z,56.22
2019-02-25T11:13:55.343Z,56.60
2019-02-25T11:14:55.242Z,56.12
2019-02-25T11:15:55.169Z,56.60
2019-02-25T11:16:55.092Z,56.41
2019-02-25T11:17:56.082Z,56.72
2019-02-25T11:18:56.572Z,56.44
2019-02-25T11:19:56.520Z,55.49
2019-02-25T11:20:54.779Z,55.77
2019-02-25T11:21:54.697Z,55.58
2019-02-25T11:22:54.623Z,55.77
2019-02-25T11:23:54.550Z,55.87
2019-02-25T11:24:55.612Z,55.96
2019-02-25T11:25:56.271Z,55.87
2019-02-25T11:26:54.308Z,55.68
2019-02-25T11:27:54.236Z,55.87
2019-02-25T11:28:54.157Z,55.87
2019-02-25T11:29:54.080Z,55.68
2019-02-25T11:30:54.000Z,55.96
2019-02-25T11:31:55.540Z,54.47
2019-02-25T11:32:55.668Z,55.13
2019-02-25T11:33:53.768Z,55.04
2019-02-25T11:34:53.709Z,54.75
2019-02-25T11:35:53.624Z,54.30
2019-02-25T11:36:55.486Z,53.25
2019-02-25T11:37:54.720Z,52.23
2019-02-25T11:38:53.402Z,51.18
2019-02-25T11:39:54.932Z,50.26
2019-02-25T11:40:53.259Z,49.49
2019-02-25T11:41:53.170Z,49.23
2019-02-25T11:42:53.099Z,48.37
2019-02-25T11:43:55.196Z,48.11
2019-02-25T11:44:54.265Z,47.34
2019-02-25T11:45:52.894Z,46.97
2019-02-25T11:46:52.818Z,46.13
2019-02-25T11:47:52.751Z,45.75
2019-02-25T11:48:52.686Z,45.48
2019-02-25T11:49:52.613Z,45.29
2019-02-25T11:50:52.541Z,45.01
2019-02-25T11:51:52.478Z,44.53
2019-02-25T11:52:52.424Z,43.95
2019-02-25T11:53:52.342Z,43.40
2019-02-25T11:54:52.278Z,43.02
2019-02-25T11:55:52.211Z,43.33
2019-02-25T11:56:52.154Z,43.90
2019-02-25T11:57:52.080Z,43.33
2019-02-25T11:58:52.004Z,42.77
2019-02-25T11:59:51.937Z,42.40
2019-02-25T12:00:51.867Z,42.20
2019-02-25T12:01:51.817Z,42.11
2019-02-25T12:02:51.731Z,42.51
2019-02-25T12:03:51.660Z,42.03
2019-02-25T12:04:51.589Z,42.22
2019-02-25T12:05:52.604Z,42.13
2019-02-25T12:06:51.462Z,41.96
2019-02-25T12:07:51.474Z,41.67
2019-02-25T12:08:51.310Z,41.38
2019-02-25T12:09:51.245Z,40.71
2019-02-25T12:10:51.177Z,40.81
2019-02-25T12:11:51.105Z,41.67
2019-02-25T12:12:51.037Z,42.44
2019-02-25T12:13:50.958Z,42.14
2019-02-25T12:14:50.890Z,42.34
2019-02-25T12:15:50.817Z,42.22
2019-02-25T12:16:50.751Z,42.70
2019-02-25T12:17:50.674Z,43.54
2019-02-25T12:18:50.611Z,43.73
2019-02-25T12:19:50.533Z,43.63
2019-02-25T12:20:50.455Z,44.57
2019-02-25T12:21:50.391Z,45.43
2019-02-25T12:22:50.349Z,44.95
2019-02-25T12:23:50.277Z,45.05
2019-02-25T12:24:50.186Z,45.43
2019-02-25T12:25:50.103Z,45.15
2019-02-25T12:26:50.034Z,45.72
2019-02-25T12:27:49.958Z,46.20
2019-02-25T12:28:49.889Z,46.87
2019-02-25T12:29:49.818Z,47.25
2019-02-25T12:30:49.740Z,47.92
2019-02-25T12:31:49.673Z,47.73
2019-02-25T12:32:49.602Z,47.53
2019-02-25T12:33:49.530Z,48.23
2019-02-25T12:34:49.459Z,47.27
2019-02-25T12:35:49.390Z,48.04
2019-02-25T12:36:49.319Z,48.33
2019-02-25T12:37:49.250Z,49.38
2019-02-25T12:38:49.179Z,49.48
2019-02-25T12:39:49.122Z,49.76
2019-02-25T12:40:49.035Z,49.76
2019-02-25T12:41:48.969Z,50.24
2019-02-25T12:42:48.905Z,51.10
2019-02-25T12:43:48.835Z,50.62
2019-02-25T12:44:48.759Z,49.86
2019-02-25T12:45:48.693Z,49.09
2019-02-25T12:46:48.624Z,49.48
2019-02-25T12:47:48.558Z,48.80
2019-02-25T12:48:48.484Z,49.69
2019-02-25T12:49:48.415Z,49.60
2019-02-25T12:50:48.346Z,49.60
2019-02-25T12:51:48.280Z,49.40
2019-02-25T12:52:48.206Z,48.54
2019-02-25T12:53:48.149Z,48.73
2019-02-25T12:54:48.070Z,48.64